createdAt,value
2018-09-17T00:00:07.753Z,0.00
2018-09-17T00:01:07.770Z,0.00
2018-09-17T00:02:07.787Z,0.00
2018-09-17T00:03:07.803Z,0.00
2018-09-17T00:04:07.822Z,0.00
2018-09-17T00:05:07.841Z,0.00
2018-09-17T00:06:07.859Z,0.00
2018-09-17T00:07:07.879Z,0.00
2018-09-17T00:08:07.896Z,0.00
2018-09-17T00:09:07.912Z,0.00
2018-09-17T00:10:07.931Z,0.00
2018-09-17T00:11:07.948Z,0.00
2018-09-17T00:12:07.971Z,0.00
2018-09-17T00:13:07.984Z,0.00
2018-09-17T00:14:08.003Z,0.00
2018-09-17T00:15:08.026Z,0.00
2018-09-17T00:16:08.039Z,0.00
2018-09-17T00:17:08.058Z,0.00
2018-09-17T00:18:08.076Z,0.00
2018-09-17T00:19:08.097Z,0.00
2018-09-17T00:20:08.109Z,0.00
2018-09-17T00:21:08.129Z,0.00
2018-09-17T00:22:08.147Z,0.00
2018-09-17T00:23:08.166Z,0.00
2018-09-17T00:24:08.180Z,0.00
2018-09-17T00:25:08.200Z,0.00
2018-09-17T00:26:08.216Z,0.00
2018-09-17T00:27:08.236Z,0.00
2018-09-17T00:28:08.252Z,0.00
2018-09-17T00:29:08.271Z,0.00
2018-09-17T00:30:08.288Z,0.00
2018-09-17T00:31:08.306Z,0.00
2018-09-17T00:32:08.327Z,0.00
2018-09-17T00:33:08.343Z,0.00
2018-09-17T00:34:08.361Z,0.00
2018-09-17T00:35:08.379Z,0.00
2018-09-17T00:36:08.394Z,0.00
2018-09-17T00:37:08.413Z,0.00
2018-09-17T00:38:08.432Z,0.00
2018-09-17T00:39:08.449Z,0.00
2018-09-17T00:40:08.468Z,0.00
2018-09-17T00:41:08.485Z,0.00
2018-09-17T00:42:08.504Z,0.00
2018-09-17T00:43:08.521Z,0.00
2018-09-17T00:44:08.538Z,0.00
2018-09-17T00:45:08.557Z,0.00
2018-09-17T00:46:08.575Z,0.00
2018-09-17T00:47:08.591Z,0.00
2018-09-17T00:48:08.610Z,0.00
2018-09-17T00:49:08.627Z,0.00
2018-09-17T00:50:08.645Z,0.00
2018-09-17T00:51:08.668Z,0.00
2018-09-17T00:52:08.684Z,0.00
2018-09-17T00:53:08.700Z,0.00
2018-09-17T00:54:08.717Z,0.00
2018-09-17T00:55:08.735Z,0.00
2018-09-17T00:56:08.753Z,0.00
2018-09-17T00:57:08.771Z,0.00
2018-09-17T00:58:08.787Z,0.00
2018-09-17T00:59:08.807Z,0.00
2018-09-17T01:00:08.821Z,0.00
2018-09-17T01:01:08.841Z,0.00
2018-09-17T01:02:08.860Z,0.00
2018-09-17T01:03:08.876Z,0.00
2018-09-17T01:04:08.892Z,0.00
2018-09-17T01:05:08.911Z,0.00
2018-09-17T01:06:08.928Z,0.00
2018-09-17T01:07:08.948Z,0.00
2018-09-17T01:08:08.965Z,0.00
2018-09-17T01:09:08.983Z,0.00
2018-09-17T01:10:09.001Z,0.00
2018-09-17T01:11:09.019Z,0.00
2018-09-17T01:12:09.034Z,0.00
2018-09-17T01:13:09.052Z,0.00
2018-09-17T01:14:09.072Z,0.00
2018-09-17T01:15:09.090Z,0.00
2018-09-17T01:16:09.107Z,0.00
2018-09-17T01:17:09.124Z,0.00
2018-09-17T01:18:09.143Z,0.00
2018-09-17T01:19:09.159Z,0.00
2018-09-17T01:20:09.177Z,0.00
2018-09-17T01:21:09.195Z,0.00
2018-09-17T01:22:09.214Z,0.00
2018-09-17T01:23:09.232Z,0.00
2018-09-17T01:24:09.251Z,0.00
2018-09-17T01:25:09.266Z,0.00
2018-09-17T01:26:09.284Z,0.00
2018-09-17T01:27:09.301Z,0.00
2018-09-17T01:28:09.318Z,0.00
2018-09-17T01:29:09.336Z,0.00
2018-09-17T01:30:09.353Z,0.00
2018-09-17T01:31:09.372Z,0.00
2018-09-17T01:32:09.388Z,0.00
2018-09-17T01:33:09.406Z,0.00
2018-09-17T01:34:09.426Z,0.00
2018-09-17T01:35:09.443Z,0.00
2018-09-17T01:36:09.463Z,0.00
2018-09-17T01:37:09.477Z,0.00
2018-09-17T01:38:09.494Z,0.00
2018-09-17T01:39:09.512Z,0.00
2018-09-17T01:40:09.535Z,0.00
2018-09-17T01:41:09.552Z,0.00
2018-09-17T01:42:09.566Z,0.00
2018-09-17T01:43:09.582Z,0.00
2018-09-17T01:44:09.602Z,0.00
2018-09-17T01:45:09.617Z,0.00
2018-09-17T01:46:09.641Z,0.00
2018-09-17T01:47:09.654Z,0.00
2018-09-17T01:48:09.668Z,0.00
2018-09-17T01:49:09.689Z,0.00
2018-09-17T01:50:09.707Z,0.00
2018-09-17T01:51:09.728Z,0.00
2018-09-17T01:52:09.742Z,0.00
2018-09-17T01:53:09.761Z,0.00
2018-09-17T01:54:09.777Z,0.00
2018-09-17T01:55:09.795Z,0.00
2018-09-17T01:56:09.814Z,0.00
2018-09-17T01:57:09.829Z,0.00
2018-09-17T01:58:09.848Z,0.00
2018-09-17T01:59:09.867Z,0.00
2018-09-17T02:00:09.880Z,0.00
2018-09-17T02:01:09.900Z,0.00
2018-09-17T02:02:09.918Z,0.00
2018-09-17T02:03:09.935Z,0.00
2018-09-17T02:04:09.950Z,0.00
2018-09-17T02:05:09.970Z,0.00
2018-09-17T02:06:09.989Z,0.00
2018-09-17T02:07:10.004Z,0.00
2018-09-17T02:08:10.075Z,0.00
2018-09-17T02:09:10.123Z,0.00
2018-09-17T02:10:10.058Z,0.00
2018-09-17T02:11:10.078Z,0.00
2018-09-17T02:12:10.095Z,0.00
2018-09-17T02:13:10.109Z,0.00
2018-09-17T02:14:10.135Z,0.00
2018-09-17T02:15:10.147Z,0.00
2018-09-17T02:16:10.162Z,0.00
2018-09-17T02:17:10.181Z,0.00
2018-09-17T02:18:10.199Z,0.00
2018-09-17T02:19:10.216Z,0.00
2018-09-17T02:20:10.232Z,0.00
2018-09-17T02:21:10.251Z,0.00
2018-09-17T02:22:10.268Z,0.00
2018-09-17T02:23:10.285Z,0.00
2018-09-17T02:24:10.307Z,0.00
2018-09-17T02:25:10.323Z,0.00
2018-09-17T02:26:10.338Z,0.00
2018-09-17T02:27:10.357Z,0.00
2018-09-17T02:28:10.372Z,0.00
2018-09-17T02:29:10.392Z,0.00
2018-09-17T02:30:10.411Z,0.00
2018-09-17T02:31:10.426Z,0.00
2018-09-17T02:32:10.445Z,0.00
2018-09-17T02:33:10.461Z,0.00
2018-09-17T02:34:10.480Z,0.00
2018-09-17T02:35:10.498Z,0.00
2018-09-17T02:36:10.516Z,0.00
2018-09-17T02:37:10.532Z,0.00
2018-09-17T02:38:10.550Z,0.00
2018-09-17T02:39:10.569Z,0.00
2018-09-17T02:40:10.584Z,0.00
2018-09-17T02:41:10.603Z,0.00
2018-09-17T02:42:10.621Z,0.00
2018-09-17T02:43:10.640Z,0.00
2018-09-17T02:44:10.657Z,0.00
2018-09-17T02:45:10.678Z,0.00
2018-09-17T02:46:10.695Z,0.00
2018-09-17T02:47:10.713Z,0.00
2018-09-17T02:48:10.727Z,0.00
2018-09-17T02:49:10.749Z,0.00
2018-09-17T02:50:10.766Z,0.00
2018-09-17T02:51:10.784Z,0.00
2018-09-17T02:52:10.812Z,0.00
2018-09-17T02:53:10.817Z,0.00
2018-09-17T02:54:10.846Z,0.00
2018-09-17T02:55:10.854Z,0.00
2018-09-17T02:56:10.872Z,0.00
2018-09-17T02:57:10.894Z,0.00
2018-09-17T02:58:10.907Z,0.00
2018-09-17T02:59:10.927Z,0.00
2018-09-17T03:00:10.942Z,0.00
2018-09-17T03:01:10.963Z,0.00
2018-09-17T03:02:10.980Z,0.00
2018-09-17T03:03:10.997Z,0.00
2018-09-17T03:04:11.013Z,0.00
2018-09-17T03:05:11.032Z,0.00
2018-09-17T03:06:11.049Z,0.00
2018-09-17T03:07:11.071Z,0.00
2018-09-17T03:08:11.085Z,0.00
2018-09-17T03:09:11.102Z,0.00
2018-09-17T03:10:11.122Z,0.00
2018-09-17T03:11:11.138Z,0.00
2018-09-17T03:12:11.157Z,0.00
2018-09-17T03:13:11.175Z,0.00
2018-09-17T03:14:11.194Z,0.00
2018-09-17T03:15:11.210Z,0.00
2018-09-17T03:16:11.228Z,0.00
2018-09-17T03:17:11.244Z,0.00
2018-09-17T03:18:11.265Z,0.00
2018-09-17T03:19:11.280Z,0.00
2018-09-17T03:20:11.298Z,0.00
2018-09-17T03:21:11.316Z,0.00
2018-09-17T03:22:11.332Z,0.00
2018-09-17T03:23:11.351Z,0.00
2018-09-17T03:24:11.368Z,0.00
2018-09-17T03:25:11.388Z,0.00
2018-09-17T03:26:11.411Z,0.00
2018-09-17T03:27:11.422Z,0.00
2018-09-17T03:28:11.439Z,0.00
2018-09-17T03:29:11.458Z,0.00
2018-09-17T03:30:11.477Z,0.00
2018-09-17T03:31:11.493Z,0.00
2018-09-17T03:32:11.513Z,0.00
2018-09-17T03:33:11.530Z,0.00
2018-09-17T03:34:11.547Z,0.00
2018-09-17T03:35:11.563Z,0.00
2018-09-17T03:36:11.586Z,0.00
2018-09-17T03:37:11.595Z,0.00
2018-09-17T03:38:11.614Z,0.00
2018-09-17T03:39:11.632Z,0.00
2018-09-17T03:40:11.648Z,0.00
2018-09-17T03:41:11.666Z,0.00
2018-09-17T03:42:11.685Z,0.00
2018-09-17T03:43:11.705Z,0.00
2018-09-17T03:44:11.720Z,0.00
2018-09-17T03:45:11.738Z,0.00
2018-09-17T03:46:11.762Z,0.00
2018-09-17T03:47:11.772Z,0.00
2018-09-17T03:48:11.788Z,0.00
2018-09-17T03:49:11.805Z,0.00
2018-09-17T03:50:11.824Z,0.00
2018-09-17T03:51:11.842Z,0.00
2018-09-17T03:52:11.858Z,0.00
2018-09-17T03:53:11.874Z,0.00
2018-09-17T03:54:11.893Z,0.00
2018-09-17T03:55:11.910Z,0.00
2018-09-17T03:56:11.926Z,0.00
2018-09-17T03:57:11.944Z,0.00
2018-09-17T03:58:11.962Z,0.00
2018-09-17T03:59:11.981Z,0.00
2018-09-17T04:00:11.996Z,0.00
2018-09-17T04:01:12.013Z,0.00
2018-09-17T04:02:12.032Z,0.00
2018-09-17T04:03:12.050Z,0.00
2018-09-17T04:04:12.066Z,0.00
2018-09-17T04:05:12.085Z,0.00
2018-09-17T04:06:12.100Z,0.00
2018-09-17T04:07:12.117Z,0.00
2018-09-17T04:08:12.133Z,0.00
2018-09-17T04:09:12.167Z,0.00
2018-09-17T04:10:12.171Z,0.00
2018-09-17T04:11:12.190Z,0.00
2018-09-17T04:12:12.203Z,0.00
2018-09-17T04:13:12.220Z,0.00
2018-09-17T04:14:12.242Z,0.00
2018-09-17T04:15:12.256Z,0.00
2018-09-17T04:16:12.273Z,0.00
2018-09-17T04:17:12.290Z,0.00
2018-09-17T04:18:12.306Z,0.00
2018-09-17T04:19:12.325Z,0.00
2018-09-17T04:20:12.340Z,0.00
2018-09-17T04:21:12.367Z,0.00
2018-09-17T04:22:12.377Z,0.00
2018-09-17T04:23:12.393Z,0.00
2018-09-17T04:24:12.410Z,0.00
2018-09-17T04:25:12.426Z,0.00
2018-09-17T04:26:12.446Z,0.00
2018-09-17T04:27:12.464Z,0.00
2018-09-17T04:28:12.480Z,0.00
2018-09-17T04:29:12.497Z,0.00
2018-09-17T04:30:12.516Z,0.00
2018-09-17T04:31:12.532Z,0.00
2018-09-17T04:32:12.548Z,0.00
2018-09-17T04:33:12.601Z,0.00
2018-09-17T04:34:12.582Z,0.00
2018-09-17T04:35:12.601Z,0.00
2018-09-17T04:36:12.616Z,0.00
2018-09-17T04:37:12.633Z,0.00
2018-09-17T04:38:12.654Z,0.00
2018-09-17T04:39:12.669Z,0.00
2018-09-17T04:40:12.690Z,0.00
2018-09-17T04:41:12.701Z,0.00
2018-09-17T04:42:12.721Z,0.00
2018-09-17T04:43:12.737Z,0.00
2018-09-17T04:44:12.752Z,0.00
2018-09-17T04:45:12.771Z,0.00
2018-09-17T04:46:12.788Z,0.00
2018-09-17T04:47:12.808Z,0.00
2018-09-17T04:48:12.823Z,0.00
2018-09-17T04:49:12.839Z,0.00
2018-09-17T04:50:12.856Z,0.00
2018-09-17T04:51:12.873Z,0.00
2018-09-17T04:52:12.890Z,0.00
2018-09-17T04:53:12.906Z,0.00
2018-09-17T04:54:12.925Z,0.00
2018-09-17T04:55:12.941Z,4.00
2018-09-17T04:56:12.959Z,0.00
2018-09-17T04:57:12.998Z,0.00
2018-09-17T04:58:12.992Z,0.00
2018-09-17T04:59:13.012Z,0.00
2018-09-17T05:00:13.029Z,0.00
2018-09-17T05:01:13.046Z,4.00
2018-09-17T05:02:13.064Z,4.00
2018-09-17T05:03:13.081Z,4.00
2018-09-17T05:04:13.095Z,0.00
2018-09-17T05:05:13.113Z,0.00
2018-09-17T05:06:13.131Z,4.00
2018-09-17T05:07:13.204Z,4.00
2018-09-17T05:08:13.164Z,4.00
2018-09-17T05:09:13.179Z,8.00
2018-09-17T05:10:13.197Z,8.00
2018-09-17T05:11:13.215Z,8.00
2018-09-17T05:12:13.232Z,8.00
2018-09-17T05:13:13.359Z,4.00
2018-09-17T05:14:13.266Z,8.00
2018-09-17T05:15:13.285Z,8.00
2018-09-17T05:16:13.299Z,8.00
2018-09-17T05:17:13.316Z,8.00
2018-09-17T05:18:13.331Z,12.00
2018-09-17T05:19:13.351Z,8.00
2018-09-17T05:20:13.365Z,12.00
2018-09-17T05:21:13.385Z,12.00
2018-09-17T05:22:13.401Z,12.00
2018-09-17T05:23:13.416Z,16.00
2018-09-17T05:24:13.431Z,16.00
2018-09-17T05:25:13.447Z,16.00
2018-09-17T05:26:13.465Z,16.00
2018-09-17T05:27:13.482Z,16.00
2018-09-17T05:28:13.497Z,16.00
2018-09-17T05:29:13.514Z,20.00
2018-09-17T05:30:13.533Z,20.00
2018-09-17T05:31:13.550Z,20.00
2018-09-17T05:32:13.566Z,20.00
2018-09-17T05:33:13.580Z,24.00
2018-09-17T05:34:13.600Z,24.00
2018-09-17T05:35:13.650Z,24.00
2018-09-17T05:36:13.634Z,24.00
2018-09-17T05:37:13.648Z,28.00
2018-09-17T05:38:13.665Z,24.00
2018-09-17T05:39:13.685Z,28.00
2018-09-17T05:40:13.702Z,28.00
2018-09-17T05:41:13.716Z,28.00
2018-09-17T05:42:13.734Z,32.00
2018-09-17T05:43:13.753Z,28.00
2018-09-17T05:44:13.764Z,32.00
2018-09-17T05:45:13.785Z,32.00
2018-09-17T05:46:13.800Z,32.00
2018-09-17T05:47:13.816Z,32.00
2018-09-17T05:48:13.831Z,32.00
2018-09-17T05:49:13.847Z,36.00
2018-09-17T05:50:13.866Z,36.00
2018-09-17T05:51:13.880Z,36.00
2018-09-17T05:52:13.897Z,36.00
2018-09-17T05:53:13.912Z,36.00
2018-09-17T05:54:13.930Z,40.00
2018-09-17T05:55:13.947Z,36.00
2018-09-17T05:56:13.965Z,40.00
2018-09-17T05:57:13.981Z,40.00
2018-09-17T05:58:13.999Z,40.00
2018-09-17T05:59:14.019Z,40.00
2018-09-17T06:00:14.030Z,44.00
2018-09-17T06:01:14.049Z,44.00
2018-09-17T06:02:14.065Z,44.00
2018-09-17T06:03:14.081Z,44.00
2018-09-17T06:04:14.099Z,44.00
2018-09-17T06:05:14.120Z,44.00
2018-09-17T06:06:14.131Z,48.00
2018-09-17T06:07:14.153Z,48.00
2018-09-17T06:08:14.165Z,44.00
2018-09-17T06:09:14.182Z,48.00
2018-09-17T06:10:14.197Z,48.00
2018-09-17T06:11:14.253Z,48.00
2018-09-17T06:12:14.232Z,48.00
2018-09-17T06:13:14.247Z,52.00
2018-09-17T06:14:14.264Z,52.00
2018-09-17T06:15:14.282Z,52.00
2018-09-17T06:16:14.298Z,52.00
2018-09-17T06:17:14.340Z,56.00
2018-09-17T06:18:14.331Z,56.00
2018-09-17T06:19:14.348Z,56.00
2018-09-17T06:20:14.365Z,56.00
2018-09-17T06:21:14.385Z,56.00
2018-09-17T06:22:14.398Z,60.00
2018-09-17T06:23:14.424Z,56.00
2018-09-17T06:24:14.433Z,60.00
2018-09-17T06:25:14.459Z,60.00
2018-09-17T06:26:14.470Z,60.00
2018-09-17T06:27:14.483Z,60.00
2018-09-17T06:28:14.505Z,60.00
2018-09-17T06:29:14.516Z,60.00
2018-09-17T06:30:14.535Z,64.00
2018-09-17T06:31:14.552Z,64.00
2018-09-17T06:32:14.567Z,64.00
2018-09-17T06:33:14.588Z,68.00
2018-09-17T06:34:14.601Z,68.00
2018-09-17T06:35:14.617Z,72.00
2018-09-17T06:36:14.659Z,76.00
2018-09-17T06:37:14.651Z,80.00
2018-09-17T06:38:14.670Z,88.00
2018-09-17T06:39:14.685Z,96.00
2018-09-17T06:40:14.701Z,104.00
2018-09-17T06:41:14.718Z,104.00
2018-09-17T06:42:14.738Z,108.00
2018-09-17T06:43:14.758Z,108.00
2018-09-17T06:44:14.770Z,112.00
2018-09-17T06:45:14.789Z,112.00
2018-09-17T06:46:14.824Z,112.00
2018-09-17T06:47:14.821Z,116.00
2018-09-17T06:48:14.840Z,116.00
2018-09-17T06:49:14.856Z,120.00
2018-09-17T06:50:14.874Z,120.00
2018-09-17T06:51:14.894Z,120.00
2018-09-17T06:52:14.908Z,124.00
2018-09-17T06:53:14.923Z,124.00
2018-09-17T06:54:14.942Z,124.00
2018-09-17T06:55:14.958Z,124.00
2018-09-17T06:56:14.975Z,124.00
2018-09-17T06:57:14.992Z,132.00
2018-09-17T06:58:15.010Z,132.00
2018-09-17T06:59:15.028Z,120.00
2018-09-17T07:00:15.043Z,92.00
2018-09-17T07:01:15.060Z,84.00
2018-09-17T07:02:15.079Z,88.00
2018-09-17T07:03:15.094Z,88.00
2018-09-17T07:04:15.111Z,92.00
2018-09-17T07:05:15.131Z,92.00
2018-09-17T07:06:15.199Z,100.00
2018-09-17T07:07:15.161Z,100.00
2018-09-17T07:08:15.180Z,104.00
2018-09-17T07:09:15.196Z,120.00
2018-09-17T07:10:15.222Z,132.00
2018-09-17T07:11:15.230Z,160.00
2018-09-17T07:12:15.245Z,132.00
2018-09-17T07:13:15.264Z,140.00
2018-09-17T07:14:15.280Z,148.00
2018-09-17T07:15:15.301Z,172.00
2018-09-17T07:16:15.314Z,136.00
2018-09-17T07:17:15.332Z,128.00
2018-09-17T07:18:15.346Z,124.00
2018-09-17T07:19:15.365Z,112.00
2018-09-17T07:20:15.382Z,108.00
2018-09-17T07:21:15.399Z,148.00
2018-09-17T07:22:15.423Z,168.00
2018-09-17T07:23:15.436Z,176.00
2018-09-17T07:24:15.455Z,172.00
2018-09-17T07:25:15.514Z,180.00
2018-09-17T07:26:15.485Z,152.00
2018-09-17T07:27:15.503Z,108.00
2018-09-17T07:28:15.519Z,100.00
2018-09-17T07:29:15.541Z,100.00
2018-09-17T07:30:15.556Z,100.00
2018-09-17T07:31:15.572Z,104.00
2018-09-17T07:32:15.587Z,128.00
2018-09-17T07:33:15.606Z,136.00
2018-09-17T07:34:15.623Z,100.00
2018-09-17T07:35:15.641Z,100.00
2018-09-17T07:36:15.762Z,100.00
2018-09-17T07:37:15.675Z,96.00
2018-09-17T07:38:15.693Z,100.00
2018-09-17T07:39:15.710Z,96.00
2018-09-17T07:40:15.727Z,100.00
2018-09-17T07:41:15.743Z,100.00
2018-09-17T07:42:15.762Z,104.00
2018-09-17T07:43:15.781Z,104.00
2018-09-17T07:44:15.798Z,104.00
2018-09-17T07:45:15.813Z,112.00
2018-09-17T07:46:15.829Z,120.00
2018-09-17T07:47:15.851Z,128.00
2018-09-17T07:48:15.865Z,156.00
2018-09-17T07:49:15.883Z,216.00
2018-09-17T07:50:15.901Z,228.00
2018-09-17T07:51:15.924Z,180.00
2018-09-17T07:52:15.936Z,192.00
2018-09-17T07:53:15.988Z,240.00
2018-09-17T07:54:15.992Z,240.00
2018-09-17T07:55:15.987Z,240.00
2018-09-17T07:56:16.005Z,172.00
2018-09-17T07:57:16.023Z,168.00
2018-09-17T07:58:16.040Z,220.00
2018-09-17T07:59:16.057Z,156.00
2018-09-17T08:00:16.074Z,188.00
2018-09-17T08:01:16.096Z,184.00
2018-09-17T08:02:16.112Z,156.00
2018-09-17T08:03:16.126Z,244.00
2018-09-17T08:04:16.144Z,264.00
2018-09-17T08:05:16.163Z,268.00
2018-09-17T08:06:16.181Z,272.00
2018-09-17T08:07:16.199Z,272.00
2018-09-17T08:08:16.214Z,276.00
2018-09-17T08:09:16.233Z,280.00
2018-09-17T08:10:16.254Z,284.00
2018-09-17T08:11:16.270Z,284.00
2018-09-17T08:12:16.287Z,288.00
2018-09-17T08:13:16.304Z,292.00
2018-09-17T08:14:16.322Z,296.00
2018-09-17T08:15:16.343Z,300.00
2018-09-17T08:16:16.356Z,308.00
2018-09-17T08:17:16.377Z,308.00
2018-09-17T08:18:16.395Z,312.00
2018-09-17T08:19:16.412Z,312.00
2018-09-17T08:20:16.430Z,316.00
2018-09-17T08:21:16.447Z,320.00
2018-09-17T08:22:16.465Z,324.00
2018-09-17T08:23:16.484Z,328.00
2018-09-17T08:24:16.499Z,328.00
2018-09-17T08:25:16.519Z,332.00
2018-09-17T08:26:16.537Z,332.00
2018-09-17T08:27:16.555Z,340.00
2018-09-17T08:28:16.572Z,340.00
2018-09-17T08:29:16.591Z,344.00
2018-09-17T08:30:16.609Z,348.00
2018-09-17T08:31:16.749Z,352.00
2018-09-17T08:32:16.646Z,356.00
2018-09-17T08:33:16.664Z,360.00
2018-09-17T08:34:16.683Z,368.00
2018-09-17T08:35:16.705Z,368.00
2018-09-17T08:36:16.715Z,372.00
2018-09-17T08:37:16.734Z,376.00
2018-09-17T08:38:16.775Z,380.00
2018-09-17T08:39:16.774Z,388.00
2018-09-17T08:40:16.789Z,392.00
2018-09-17T08:41:16.807Z,396.00
2018-09-17T08:42:16.828Z,400.00
2018-09-17T08:43:16.844Z,404.00
2018-09-17T08:44:16.861Z,408.00
2018-09-17T08:45:16.879Z,416.00
2018-09-17T08:46:16.897Z,420.00
2018-09-17T08:47:16.916Z,424.00
2018-09-17T08:48:16.935Z,428.00
2018-09-17T08:49:16.959Z,432.00
2018-09-17T08:50:16.972Z,436.00
2018-09-17T08:51:16.991Z,444.00
2018-09-17T08:52:17.032Z,448.00
2018-09-17T08:53:17.034Z,456.00
2018-09-17T08:54:17.045Z,456.00
2018-09-17T08:55:17.061Z,460.00
2018-09-17T08:56:17.083Z,464.00
2018-09-17T08:57:17.101Z,472.00
2018-09-17T08:58:17.176Z,476.00
2018-09-17T08:59:17.139Z,484.00
2018-09-17T09:00:17.155Z,484.00
2018-09-17T09:01:17.175Z,492.00
2018-09-17T09:02:17.194Z,496.00
2018-09-17T09:03:17.210Z,504.00
2018-09-17T09:04:17.233Z,512.00
2018-09-17T09:05:17.249Z,516.00
2018-09-17T09:06:17.268Z,524.00
2018-09-17T09:07:17.284Z,532.00
2018-09-17T09:08:17.301Z,536.00
2018-09-17T09:09:17.339Z,544.00
2018-09-17T09:10:17.341Z,552.00
2018-09-17T09:11:17.459Z,560.00
2018-09-17T09:12:17.376Z,572.00
2018-09-17T09:13:17.397Z,572.00
2018-09-17T09:14:17.415Z,580.00
2018-09-17T09:15:17.436Z,588.00
2018-09-17T09:16:17.452Z,596.00
2018-09-17T09:17:17.470Z,600.00
2018-09-17T09:18:17.488Z,612.00
2018-09-17T09:19:17.508Z,620.00
2018-09-17T09:20:17.527Z,628.00
2018-09-17T09:21:17.545Z,636.00
2018-09-17T09:22:17.564Z,644.00
2018-09-17T09:23:17.582Z,656.00
2018-09-17T09:24:17.603Z,664.00
2018-09-17T09:25:17.619Z,672.00
2018-09-17T09:26:17.700Z,684.00
2018-09-17T09:27:17.657Z,696.00
2018-09-17T09:28:17.682Z,700.00
2018-09-17T09:29:17.695Z,712.00
2018-09-17T09:30:17.713Z,728.00
2018-09-17T09:31:17.734Z,736.00
2018-09-17T09:32:17.756Z,748.00
2018-09-17T09:33:17.769Z,760.00
2018-09-17T09:34:17.790Z,768.00
2018-09-17T09:35:17.807Z,780.00
2018-09-17T09:36:17.826Z,792.00
2018-09-17T09:37:17.847Z,804.00
2018-09-17T09:38:17.914Z,812.00
2018-09-17T09:39:17.886Z,820.00
2018-09-17T09:40:17.901Z,832.00
2018-09-17T09:41:17.923Z,844.00
2018-09-17T09:42:17.941Z,856.00
2018-09-17T09:43:17.964Z,864.00
2018-09-17T09:44:17.978Z,876.00
2018-09-17T09:45:17.999Z,888.00
2018-09-17T09:46:18.038Z,900.00
2018-09-17T09:47:18.038Z,908.00
2018-09-17T09:48:18.057Z,924.00
2018-09-17T09:49:18.179Z,932.00
2018-09-17T09:50:18.095Z,944.00
2018-09-17T09:51:18.115Z,952.00
2018-09-17T09:52:18.134Z,968.00
2018-09-17T09:53:18.155Z,976.00
2018-09-17T09:54:18.177Z,984.00
2018-09-17T09:55:18.194Z,988.00
2018-09-17T09:56:18.214Z,1000.00
2018-09-17T09:57:18.235Z,1012.00
2018-09-17T09:58:18.252Z,1024.00
2018-09-17T09:59:18.273Z,1032.00
2018-09-17T10:00:18.293Z,1036.00
2018-09-17T10:01:18.323Z,1044.00
2018-09-17T10:02:18.334Z,1052.00
2018-09-17T10:03:18.352Z,1064.00
2018-09-17T10:04:18.383Z,1072.00
2018-09-17T10:05:18.392Z,1084.00
2018-09-17T10:06:18.412Z,1096.00
2018-09-17T10:07:18.434Z,1100.00
2018-09-17T10:08:18.489Z,1108.00
2018-09-17T10:09:18.471Z,1112.00
2018-09-17T10:10:18.493Z,1116.00
2018-09-17T10:11:18.511Z,1128.00
2018-09-17T10:12:18.532Z,1136.00
2018-09-17T10:13:18.555Z,1140.00
2018-09-17T10:14:18.573Z,1152.00
2018-09-17T10:15:18.593Z,1156.00
2018-09-17T10:16:18.613Z,1160.00
2018-09-17T10:17:18.633Z,1180.00
2018-09-17T10:18:18.656Z,1184.00
2018-09-17T10:19:18.695Z,1192.00
2018-09-17T10:20:18.694Z,1196.00
2018-09-17T10:21:18.714Z,1200.00
2018-09-17T10:22:18.738Z,1208.00
2018-09-17T10:23:18.757Z,1220.00
2018-09-17T10:24:18.775Z,1220.00
2018-09-17T10:25:18.796Z,1224.00
2018-09-17T10:26:18.818Z,1232.00
2018-09-17T10:27:18.846Z,1240.00
2018-09-17T10:28:18.858Z,1248.00
2018-09-17T10:29:18.878Z,1252.00
2018-09-17T10:30:18.903Z,1260.00
2018-09-17T10:31:18.924Z,1268.00
2018-09-17T10:32:18.940Z,1272.00
2018-09-17T10:33:18.964Z,1276.00
2018-09-17T10:34:18.984Z,1284.00
2018-09-17T10:35:19.006Z,1284.00
2018-09-17T10:36:19.027Z,1288.00
2018-09-17T10:37:19.048Z,1296.00
2018-09-17T10:38:19.068Z,1300.00
2018-09-17T10:39:19.093Z,1304.00
2018-09-17T10:40:19.112Z,1308.00
2018-09-17T10:41:19.132Z,1316.00
2018-09-17T10:42:19.152Z,1324.00
2018-09-17T10:43:19.176Z,1324.00
2018-09-17T10:44:19.195Z,1328.00
2018-09-17T10:45:19.220Z,1332.00
2018-09-17T10:46:19.241Z,1332.00
2018-09-17T10:47:19.263Z,1348.00
2018-09-17T10:48:19.283Z,1352.00
2018-09-17T10:49:19.307Z,1356.00
2018-09-17T10:50:19.328Z,1360.00
2018-09-17T10:51:19.349Z,1364.00
2018-09-17T10:52:19.370Z,1368.00
2018-09-17T10:53:19.392Z,1372.00
2018-09-17T10:54:19.418Z,1380.00
2018-09-17T10:55:19.435Z,1384.00
2018-09-17T10:56:19.459Z,1388.00
2018-09-17T10:57:19.527Z,1392.00
2018-09-17T10:58:19.502Z,1396.00
2018-09-17T10:59:19.524Z,1400.00
2018-09-17T11:00:19.545Z,1400.00
2018-09-17T11:01:19.571Z,1400.00
2018-09-17T11:02:19.592Z,1404.00
2018-09-17T11:03:19.619Z,1412.00
2018-09-17T11:04:19.638Z,1416.00
2018-09-17T11:05:19.656Z,1420.00
2018-09-17T11:06:19.681Z,1424.00
2018-09-17T11:07:19.706Z,1424.00
2018-09-17T11:08:19.799Z,1432.00
2018-09-17T11:09:19.749Z,1436.00
2018-09-17T11:10:19.771Z,1444.00
2018-09-17T11:11:19.795Z,1448.00
2018-09-17T11:12:19.817Z,1448.00
2018-09-17T11:13:19.838Z,1456.00
2018-09-17T11:14:19.863Z,1456.00
2018-09-17T11:15:19.888Z,1460.00
2018-09-17T11:16:19.910Z,1464.00
2018-09-17T11:17:20.007Z,1468.00
2018-09-17T11:18:19.953Z,1472.00
2018-09-17T11:19:19.982Z,1476.00
2018-09-17T11:20:19.999Z,1476.00
2018-09-17T11:21:20.023Z,1476.00
2018-09-17T11:22:20.046Z,1476.00
2018-09-17T11:23:20.071Z,1476.00
2018-09-17T11:24:20.092Z,1476.00
2018-09-17T11:25:20.116Z,1484.00
2018-09-17T11:26:20.139Z,1488.00
2018-09-17T11:27:20.161Z,1488.00
2018-09-17T11:28:20.184Z,1484.00
2018-09-17T11:29:20.209Z,1488.00
2018-09-17T11:30:20.232Z,1492.00
2018-09-17T11:31:20.298Z,1496.00
2018-09-17T11:32:20.274Z,1496.00
2018-09-17T11:33:20.300Z,1496.00
2018-09-17T11:34:20.322Z,1504.00
2018-09-17T11:35:20.345Z,1504.00
2018-09-17T11:36:20.367Z,1508.00
2018-09-17T11:37:20.390Z,1520.00
2018-09-17T11:38:20.413Z,1516.00
2018-09-17T11:39:20.434Z,1520.00
2018-09-17T11:40:20.458Z,1520.00
2018-09-17T11:41:20.484Z,1520.00
2018-09-17T11:42:20.504Z,1520.00
2018-09-17T11:43:20.529Z,1524.00
2018-09-17T11:44:20.550Z,1528.00
2018-09-17T11:45:20.571Z,1532.00
2018-09-17T11:46:20.595Z,1532.00
2018-09-17T11:47:20.617Z,1528.00
2018-09-17T11:48:20.694Z,1532.00
2018-09-17T11:49:20.661Z,1536.00
2018-09-17T11:50:20.687Z,1536.00
2018-09-17T11:51:20.707Z,1540.00
2018-09-17T11:52:20.729Z,1548.00
2018-09-17T11:53:20.750Z,1548.00
2018-09-17T11:54:20.778Z,1552.00
2018-09-17T11:55:20.801Z,1556.00
2018-09-17T11:56:20.825Z,1560.00
2018-09-17T11:57:20.844Z,1556.00
2018-09-17T11:58:20.867Z,1556.00
2018-09-17T11:59:20.894Z,1556.00
2018-09-17T12:00:20.916Z,1560.00
2018-09-17T12:01:20.939Z,1564.00
2018-09-17T12:02:21.004Z,1560.00
2018-09-17T12:03:20.985Z,1560.00
2018-09-17T12:04:21.011Z,1560.00
2018-09-17T12:05:21.029Z,1560.00
2018-09-17T12:06:21.051Z,1564.00
2018-09-17T12:07:21.059Z,1568.00
2018-09-17T12:08:21.084Z,1568.00
2018-09-17T12:09:21.176Z,1572.00
2018-09-17T12:10:21.144Z,1572.00
2018-09-17T12:11:21.176Z,1572.00
2018-09-17T12:12:21.191Z,1576.00
2018-09-17T12:13:21.216Z,1576.00
2018-09-17T12:14:21.240Z,1576.00
2018-09-17T12:15:21.261Z,1576.00
2018-09-17T12:16:21.285Z,1580.00
2018-09-17T12:17:21.309Z,1580.00
2018-09-17T12:18:21.331Z,1584.00
2018-09-17T12:19:21.356Z,1584.00
2018-09-17T12:20:21.382Z,1584.00
2018-09-17T12:21:21.401Z,1588.00
2018-09-17T12:22:21.425Z,1592.00
2018-09-17T12:23:21.450Z,1588.00
2018-09-17T12:24:21.478Z,1592.00
2018-09-17T12:25:21.498Z,1600.00
2018-09-17T12:26:21.519Z,1592.00
2018-09-17T12:27:21.545Z,1592.00
2018-09-17T12:28:21.565Z,1596.00
2018-09-17T12:29:21.589Z,1600.00
2018-09-17T12:30:21.612Z,1604.00
2018-09-17T12:31:21.636Z,1600.00
2018-09-17T12:32:21.659Z,1604.00
2018-09-17T12:33:21.686Z,1612.00
2018-09-17T12:34:21.705Z,1608.00
2018-09-17T12:35:21.729Z,1612.00
2018-09-17T12:36:21.752Z,1612.00
2018-09-17T12:37:21.778Z,1612.00
2018-09-17T12:38:21.801Z,1616.00
2018-09-17T12:39:21.823Z,1616.00
2018-09-17T12:40:21.850Z,1624.00
2018-09-17T12:41:21.869Z,1624.00
2018-09-17T12:42:21.892Z,1628.00
2018-09-17T12:43:21.916Z,1632.00
2018-09-17T12:44:21.944Z,1636.00
2018-09-17T12:45:21.962Z,1636.00